AAL1761 KLAS-KDFW
Flight info
| Callsign | AAL1761 |
|---|---|
| Flight time | 2h 14m |
| Altitude | 37000 |
| Route | NIITZ4 SSKEE GUP J72 TXO TURKI JOVEM6 |
| Aircraft | B738/M-SDE2E3FGHIRWXY/LB1 |
Departure
| Time | 2026-05-07 23:57 |
|---|---|
| Airport | Harry Reid International Airport (KLAS) |
Arrival
| Time | 2026-05-08 02:11 |
|---|---|
| Airport | Dallas Fort Worth International Airport (KDFW) |
| Time | Latitude | Longitude | Altitude | Speed | Heading |
|---|---|---|---|---|---|
| 2026-05-07 23:44 | 36.08142 | -115.13479 | 2086 ft | 0 kts | 197° |
| 2026-05-07 23:47 | 36.08140 | -115.13479 | 2087 ft | 1 kts | 192° |
| 2026-05-07 23:47 | 36.08124 | -115.13463 | 2086 ft | 5 kts | 121° |
| 2026-05-07 23:48 | 36.08093 | -115.13399 | 2084 ft | 12 kts | 123° |
| 2026-05-07 23:48 | 36.08054 | -115.13371 | 2083 ft | 4 kts | 170° |
| 2026-05-07 23:48 | 36.08025 | -115.13367 | 2082 ft | 4 kts | 177° |
| 2026-05-07 23:48 | 36.07997 | -115.13367 | 2081 ft | 4 kts | 181° |
| 2026-05-07 23:49 | 36.07971 | -115.13368 | 2081 ft | 4 kts | 181° |
| 2026-05-07 23:49 | 36.07945 | -115.13369 | 2081 ft | 4 kts | 181° |
| 2026-05-07 23:49 | 36.07920 | -115.13370 | 2081 ft | 4 kts | 181° |
| 2026-05-07 23:49 | 36.07896 | -115.13371 | 2081 ft | 3 kts | 181° |
| 2026-05-07 23:50 | 36.07872 | -115.13371 | 2081 ft | 3 kts | 179° |
| 2026-05-07 23:50 | 36.07842 | -115.13358 | 2080 ft | 9 kts | 144° |
| 2026-05-07 23:50 | 36.07828 | -115.13242 | 2073 ft | 18 kts | 88° |
| 2026-05-07 23:50 | 36.07830 | -115.13090 | 2066 ft | 6 kts | 91° |
| 2026-05-07 23:51 | 36.07829 | -115.13026 | 2064 ft | 8 kts | 91° |
| 2026-05-07 23:51 | 36.07828 | -115.12951 | 2062 ft | 10 kts | 91° |
| 2026-05-07 23:51 | 36.07827 | -115.12860 | 2058 ft | 12 kts | 91° |
| 2026-05-07 23:51 | 36.07826 | -115.12809 | 2056 ft | 2 kts | 91° |
| 2026-05-07 23:52 | 36.07826 | -115.12769 | 2053 ft | 7 kts | 91° |
| 2026-05-07 23:52 | 36.07824 | -115.12672 | 2049 ft | 15 kts | 91° |
| 2026-05-07 23:52 | 36.07826 | -115.12540 | 2047 ft | 16 kts | 89° |
| 2026-05-07 23:52 | 36.07828 | -115.12408 | 2045 ft | 14 kts | 89° |
| 2026-05-07 23:53 | 36.07829 | -115.12317 | 2042 ft | 8 kts | 90° |
| 2026-05-07 23:53 | 36.07820 | -115.12260 | 2044 ft | 8 kts | 111° |
| 2026-05-07 23:53 | 36.07793 | -115.12210 | 2039 ft | 6 kts | 128° |
| 2026-05-07 23:53 | 36.07766 | -115.12169 | 2039 ft | 6 kts | 128° |
| 2026-05-07 23:54 | 36.07756 | -115.12154 | 2039 ft | 1 kts | 129° |
| 2026-05-07 23:54 | 36.07751 | -115.12147 | 2039 ft | 1 kts | 135° |
| 2026-05-07 23:54 | 36.07749 | -115.12145 | 2039 ft | 0 kts | 136° |
| 2026-05-07 23:55 | 36.07735 | -115.12130 | 2039 ft | 6 kts | 143° |
| 2026-05-07 23:55 | 36.07694 | -115.12114 | 2043 ft | 6 kts | 179° |
| 2026-05-07 23:55 | 36.07651 | -115.12123 | 2041 ft | 6 kts | 210° |
| 2026-05-07 23:56 | 36.07639 | -115.12183 | 2043 ft | 12 kts | 270° |
| 2026-05-07 23:56 | 36.07639 | -115.12590 | 2052 ft | 84 kts | 270° |
| 2026-05-07 23:56 | 36.07639 | -115.13613 | 2085 ft | 148 kts | 269° |
| 2026-05-07 23:56 | 36.07635 | -115.15087 | 2205 ft | 194 kts | 270° |
| 2026-05-07 23:57 | 36.07636 | -115.16754 | 3141 ft | 189 kts | 270° |
| 2026-05-07 23:57 | 36.07636 | -115.18389 | 3932 ft | 201 kts | 269° |
| 2026-05-07 23:57 | 36.07635 | -115.20221 | 4321 ft | 221 kts | 268° |
| 2026-05-07 23:57 | 36.07480 | -115.22143 | 4968 ft | 228 kts | 260° |
| 2026-05-07 23:58 | 36.07124 | -115.24123 | 5508 ft | 245 kts | 247° |
| 2026-05-07 23:58 | 36.06128 | -115.25864 | 6156 ft | 256 kts | 223° |
| 2026-05-07 23:58 | 36.04535 | -115.27011 | 6619 ft | 274 kts | 201° |
| 2026-05-07 23:58 | 36.02715 | -115.27844 | 7305 ft | 282 kts | 201° |
| 2026-05-07 23:59 | 36.00855 | -115.28589 | 7746 ft | 286 kts | 191° |
| 2026-05-07 23:59 | 35.98873 | -115.28407 | 8048 ft | 292 kts | 161° |
| 2026-05-07 23:59 | 35.97089 | -115.27165 | 8743 ft | 299 kts | 143° |
| 2026-05-07 23:59 | 35.95512 | -115.25468 | 9590 ft | 303 kts | 139° |
| 2026-05-08 00:00 | 35.93945 | -115.23680 | 10314 ft | 312 kts | 138° |
| 2026-05-08 00:00 | 35.92284 | -115.21807 | 10561 ft | 336 kts | 138° |
| 2026-05-08 00:00 | 35.90671 | -115.19580 | 10726 ft | 361 kts | 122° |
| 2026-05-08 00:00 | 35.89389 | -115.16812 | 10976 ft | 380 kts | 118° |
| 2026-05-08 00:01 | 35.88067 | -115.13932 | 11528 ft | 388 kts | 119° |
| 2026-05-08 00:01 | 35.86934 | -115.10910 | 12207 ft | 389 kts | 104° |
| 2026-05-08 00:01 | 35.86663 | -115.07662 | 12982 ft | 386 kts | 86° |
| 2026-05-08 00:01 | 35.86847 | -115.04363 | 13789 ft | 385 kts | 84° |
| 2026-05-08 00:02 | 35.87060 | -115.01061 | 14413 ft | 388 kts | 83° |
| 2026-05-08 00:02 | 35.87273 | -114.97724 | 14942 ft | 393 kts | 83° |
| 2026-05-08 00:02 | 35.87481 | -114.94334 | 15536 ft | 396 kts | 83° |
| 2026-05-08 00:02 | 35.87679 | -114.90932 | 16169 ft | 399 kts | 83° |
| 2026-05-08 00:03 | 35.87871 | -114.87500 | 16769 ft | 402 kts | 83° |
| 2026-05-08 00:03 | 35.88060 | -114.84050 | 17377 ft | 405 kts | 83° |
| 2026-05-08 00:03 | 35.88247 | -114.80571 | 17998 ft | 408 kts | 83° |
| 2026-05-08 00:03 | 35.88434 | -114.77066 | 18536 ft | 411 kts | 83° |
| 2026-05-08 00:04 | 35.88618 | -114.73580 | 19032 ft | 414 kts | 83° |
| 2026-05-08 00:04 | 35.88805 | -114.70033 | 19562 ft | 416 kts | 83° |
| 2026-05-08 00:04 | 35.88993 | -114.66453 | 20086 ft | 418 kts | 83° |
| 2026-05-08 00:04 | 35.89180 | -114.62860 | 20578 ft | 421 kts | 83° |
| 2026-05-08 00:05 | 35.89368 | -114.59246 | 21059 ft | 424 kts | 83° |
| 2026-05-08 00:05 | 35.89556 | -114.55619 | 21538 ft | 426 kts | 83° |
| 2026-05-08 00:05 | 35.89736 | -114.51957 | 22009 ft | 429 kts | 84° |
| 2026-05-08 00:05 | 35.89799 | -114.48255 | 22447 ft | 433 kts | 86° |
| 2026-05-08 00:06 | 35.89778 | -114.44526 | 22892 ft | 436 kts | 88° |
| 2026-05-08 00:06 | 35.89728 | -114.40776 | 23330 ft | 439 kts | 88° |
| 2026-05-08 00:06 | 35.89676 | -114.37051 | 23722 ft | 441 kts | 87° |
| 2026-05-08 00:06 | 35.89630 | -114.33257 | 24099 ft | 442 kts | 87° |
| 2026-05-08 00:07 | 35.89593 | -114.29450 | 24474 ft | 444 kts | 87° |
| 2026-05-08 00:07 | 35.89561 | -114.25627 | 24846 ft | 446 kts | 87° |
| 2026-05-08 00:07 | 35.89534 | -114.21790 | 25202 ft | 449 kts | 87° |
| 2026-05-08 00:07 | 35.89507 | -114.17929 | 25554 ft | 451 kts | 87° |
| 2026-05-08 00:08 | 35.89480 | -114.14057 | 25902 ft | 452 kts | 87° |
| 2026-05-08 00:08 | 35.89451 | -114.10210 | 26240 ft | 454 kts | 87° |
| 2026-05-08 00:08 | 35.89421 | -114.06303 | 26565 ft | 457 kts | 87° |
| 2026-05-08 00:08 | 35.89389 | -114.02373 | 26847 ft | 460 kts | 87° |
| 2026-05-08 00:09 | 35.89355 | -113.98410 | 27143 ft | 462 kts | 87° |
| 2026-05-08 00:09 | 35.89320 | -113.94441 | 27454 ft | 463 kts | 87° |
| 2026-05-08 00:09 | 35.89282 | -113.90466 | 27760 ft | 465 kts | 87° |
| 2026-05-08 00:09 | 35.89243 | -113.86466 | 28035 ft | 467 kts | 87° |
| 2026-05-08 00:10 | 35.89204 | -113.82442 | 28320 ft | 469 kts | 87° |
| 2026-05-08 00:10 | 35.89163 | -113.78414 | 28672 ft | 469 kts | 87° |
| 2026-05-08 00:10 | 35.89120 | -113.74394 | 29146 ft | 467 kts | 87° |
| 2026-05-08 00:10 | 35.89076 | -113.70387 | 29491 ft | 467 kts | 87° |
| 2026-05-08 00:11 | 35.89031 | -113.66438 | 29937 ft | 465 kts | 87° |
| 2026-05-08 00:11 | 35.88984 | -113.62411 | 30314 ft | 463 kts | 87° |
| 2026-05-08 00:11 | 35.88938 | -113.58498 | 30634 ft | 463 kts | 86° |
| 2026-05-08 00:11 | 35.88890 | -113.54525 | 30937 ft | 463 kts | 87° |
| 2026-05-08 00:12 | 35.88677 | -113.50554 | 31313 ft | 464 kts | 94° |
| 2026-05-08 00:12 | 35.88164 | -113.46633 | 31707 ft | 463 kts | 96° |
| 2026-05-08 00:12 | 35.87550 | -113.42737 | 32069 ft | 463 kts | 97° |
| 2026-05-08 00:12 | 35.86914 | -113.38840 | 32361 ft | 463 kts | 97° |
| 2026-05-08 00:13 | 35.86292 | -113.34949 | 32690 ft | 463 kts | 97° |
| 2026-05-08 00:13 | 35.85689 | -113.31043 | 33048 ft | 461 kts | 96° |
| 2026-05-08 00:13 | 35.85109 | -113.27163 | 33446 ft | 459 kts | 96° |
| 2026-05-08 00:13 | 35.84542 | -113.23295 | 33865 ft | 457 kts | 96° |
| 2026-05-08 00:14 | 35.83990 | -113.19490 | 34184 ft | 455 kts | 96° |
| 2026-05-08 00:14 | 35.83434 | -113.15655 | 34454 ft | 455 kts | 96° |
| 2026-05-08 00:14 | 35.82878 | -113.11819 | 34698 ft | 455 kts | 96° |
| 2026-05-08 00:14 | 35.82319 | -113.07982 | 34974 ft | 454 kts | 96° |
| 2026-05-08 00:15 | 35.81758 | -113.04145 | 35225 ft | 454 kts | 96° |
| 2026-05-08 00:15 | 35.81195 | -113.00307 | 35502 ft | 453 kts | 96° |
| 2026-05-08 00:15 | 35.80633 | -112.96489 | 35793 ft | 452 kts | 96° |
| 2026-05-08 00:15 | 35.80072 | -112.92689 | 36049 ft | 451 kts | 96° |
| 2026-05-08 00:16 | 35.79697 | -112.90151 | 36205 ft | 451 kts | 96° |
| 2026-05-08 00:16 | 35.79134 | -112.86349 | 36448 ft | 451 kts | 96° |
| 2026-05-08 00:16 | 35.78388 | -112.81329 | 36801 ft | 449 kts | 96° |
| 2026-05-08 00:16 | 35.78009 | -112.78776 | 36960 ft | 449 kts | 96° |
| 2026-05-08 00:17 | 35.76880 | -112.71204 | 36983 ft | 452 kts | 96° |
| 2026-05-08 00:17 | 35.75742 | -112.63618 | 36972 ft | 448 kts | 96° |
| 2026-05-08 00:18 | 35.74611 | -112.56089 | 36988 ft | 445 kts | 96° |
| 2026-05-08 00:18 | 35.73484 | -112.48605 | 36985 ft | 443 kts | 96° |
| 2026-05-08 00:19 | 35.72366 | -112.41208 | 37000 ft | 442 kts | 96° |
| 2026-05-08 00:19 | 35.71237 | -112.33773 | 36998 ft | 442 kts | 96° |
| 2026-05-08 00:20 | 35.70100 | -112.26317 | 37004 ft | 444 kts | 96° |
| 2026-05-08 00:20 | 35.68951 | -112.18822 | 37007 ft | 446 kts | 97° |
| 2026-05-08 00:21 | 35.67802 | -112.11354 | 37017 ft | 448 kts | 97° |
| 2026-05-08 00:21 | 35.66635 | -112.03802 | 37009 ft | 450 kts | 97° |
| 2026-05-08 00:22 | 35.65456 | -111.96213 | 37009 ft | 451 kts | 97° |
| 2026-05-08 00:22 | 35.64274 | -111.88621 | 37013 ft | 452 kts | 97° |
| 2026-05-08 00:23 | 35.63131 | -111.81032 | 36997 ft | 450 kts | 93° |
| 2026-05-08 00:23 | 35.62691 | -111.73451 | 36986 ft | 446 kts | 88° |
| 2026-05-08 00:24 | 35.62501 | -111.65820 | 36980 ft | 446 kts | 88° |
| 2026-05-08 00:24 | 35.62262 | -111.58210 | 36989 ft | 446 kts | 89° |
| 2026-05-08 00:25 | 35.61958 | -111.50595 | 36968 ft | 445 kts | 89° |
| 2026-05-08 00:25 | 35.61628 | -111.43043 | 36969 ft | 445 kts | 89° |
| 2026-05-08 00:26 | 35.61287 | -111.35463 | 36960 ft | 444 kts | 89° |
| 2026-05-08 00:26 | 35.60942 | -111.27865 | 36957 ft | 444 kts | 89° |
| 2026-05-08 00:27 | 35.60595 | -111.20290 | 36943 ft | 443 kts | 89° |
| 2026-05-08 00:27 | 35.60246 | -111.12760 | 36954 ft | 443 kts | 89° |
| 2026-05-08 00:28 | 35.59890 | -111.05193 | 36943 ft | 444 kts | 89° |
| 2026-05-08 00:28 | 35.59529 | -110.97617 | 36956 ft | 444 kts | 90° |
| 2026-05-08 00:29 | 35.59164 | -110.90039 | 36956 ft | 444 kts | 90° |
| 2026-05-08 00:29 | 35.58795 | -110.82501 | 36951 ft | 444 kts | 90° |
| 2026-05-08 00:30 | 35.58419 | -110.74913 | 36942 ft | 445 kts | 90° |
| 2026-05-08 00:30 | 35.58037 | -110.67312 | 36957 ft | 445 kts | 90° |
| 2026-05-08 00:31 | 35.57651 | -110.59706 | 36965 ft | 446 kts | 90° |
| 2026-05-08 00:31 | 35.57259 | -110.52097 | 36957 ft | 446 kts | 90° |
| 2026-05-08 00:32 | 35.56866 | -110.44533 | 36960 ft | 447 kts | 90° |
| 2026-05-08 00:32 | 35.56464 | -110.36904 | 36957 ft | 447 kts | 90° |
| 2026-05-08 00:33 | 35.56056 | -110.29262 | 36966 ft | 448 kts | 90° |
| 2026-05-08 00:33 | 35.55646 | -110.21669 | 36972 ft | 449 kts | 90° |
| 2026-05-08 00:34 | 35.55228 | -110.14012 | 36962 ft | 449 kts | 90° |
| 2026-05-08 00:34 | 35.54804 | -110.06332 | 36962 ft | 450 kts | 91° |
| 2026-05-08 00:35 | 35.54377 | -109.98695 | 36967 ft | 450 kts | 91° |
| 2026-05-08 00:35 | 35.53942 | -109.91012 | 36975 ft | 450 kts | 91° |
| 2026-05-08 00:36 | 35.53503 | -109.83334 | 36975 ft | 451 kts | 91° |
| 2026-05-08 00:36 | 35.53059 | -109.75656 | 36977 ft | 450 kts | 91° |
| 2026-05-08 00:37 | 35.52613 | -109.68024 | 36983 ft | 451 kts | 91° |
| 2026-05-08 00:38 | 35.51931 | -109.56501 | 36969 ft | 451 kts | 91° |
| 2026-05-08 00:38 | 35.51470 | -109.48823 | 36975 ft | 451 kts | 91° |
| 2026-05-08 00:39 | 35.51006 | -109.41181 | 36999 ft | 451 kts | 91° |
| 2026-05-08 00:39 | 35.50534 | -109.33484 | 37030 ft | 452 kts | 91° |
| 2026-05-08 00:40 | 35.50059 | -109.25811 | 37055 ft | 452 kts | 91° |
| 2026-05-08 00:40 | 35.49577 | -109.18107 | 37093 ft | 453 kts | 91° |
| 2026-05-08 00:41 | 35.49088 | -109.10385 | 37089 ft | 453 kts | 92° |
| 2026-05-08 00:41 | 35.48595 | -109.02662 | 37090 ft | 454 kts | 92° |
| 2026-05-08 00:42 | 35.48097 | -108.94928 | 37093 ft | 455 kts | 92° |
| 2026-05-08 00:42 | 35.47569 | -108.87226 | 37120 ft | 457 kts | 95° |
| 2026-05-08 00:43 | 35.46197 | -108.79576 | 37117 ft | 460 kts | 102° |
| 2026-05-08 00:43 | 35.44572 | -108.71962 | 36945 ft | 461 kts | 102° |
| 2026-05-08 00:44 | 35.42972 | -108.64342 | 36965 ft | 461 kts | 102° |
| 2026-05-08 00:44 | 35.41414 | -108.56749 | 36973 ft | 462 kts | 102° |
| 2026-05-08 00:45 | 35.39855 | -108.49100 | 36965 ft | 462 kts | 102° |
| 2026-05-08 00:45 | 35.38294 | -108.41455 | 36968 ft | 463 kts | 102° |
| 2026-05-08 00:46 | 35.36723 | -108.33793 | 36967 ft | 463 kts | 102° |
| 2026-05-08 00:46 | 35.35154 | -108.26182 | 36976 ft | 463 kts | 102° |
| 2026-05-08 00:47 | 35.33567 | -108.18510 | 37011 ft | 464 kts | 103° |
| 2026-05-08 00:47 | 35.31978 | -108.10850 | 37054 ft | 463 kts | 102° |
| 2026-05-08 00:48 | 35.30384 | -108.03197 | 37077 ft | 464 kts | 102° |
| 2026-05-08 00:48 | 35.28786 | -107.95545 | 37106 ft | 463 kts | 103° |
| 2026-05-08 00:49 | 35.27192 | -107.87942 | 37116 ft | 463 kts | 102° |
| 2026-05-08 00:49 | 35.25585 | -107.80299 | 36962 ft | 463 kts | 103° |
| 2026-05-08 00:50 | 35.23974 | -107.72664 | 36957 ft | 463 kts | 102° |
| 2026-05-08 00:50 | 35.22368 | -107.65071 | 36954 ft | 465 kts | 103° |
| 2026-05-08 00:51 | 35.20739 | -107.57401 | 36955 ft | 466 kts | 103° |
| 2026-05-08 00:51 | 35.19099 | -107.49708 | 36963 ft | 467 kts | 103° |
| 2026-05-08 00:52 | 35.17451 | -107.42011 | 36933 ft | 468 kts | 104° |
| 2026-05-08 00:52 | 35.15809 | -107.34348 | 36939 ft | 469 kts | 104° |
| 2026-05-08 00:53 | 35.14149 | -107.26634 | 36933 ft | 469 kts | 104° |
| 2026-05-08 00:53 | 35.12488 | -107.18917 | 36933 ft | 469 kts | 104° |
| 2026-05-08 00:54 | 35.10827 | -107.11207 | 36907 ft | 469 kts | 104° |
| 2026-05-08 00:54 | 35.09163 | -107.03504 | 36905 ft | 468 kts | 104° |
| 2026-05-08 00:55 | 35.07497 | -106.95817 | 36907 ft | 468 kts | 105° |
| 2026-05-08 00:55 | 35.05836 | -106.88181 | 36920 ft | 469 kts | 105° |
| 2026-05-08 00:55 | 35.04995 | -106.84327 | 37063 ft | 469 kts | 105° |
| 2026-05-08 00:56 | 35.04194 | -106.80457 | 37059 ft | 469 kts | 102° |
| 2026-05-08 00:56 | 35.03167 | -106.72588 | 37050 ft | 470 kts | 98° |
| 2026-05-08 00:57 | 35.02299 | -106.64730 | 37046 ft | 470 kts | 98° |
| 2026-05-08 00:57 | 35.01375 | -106.56823 | 37065 ft | 471 kts | 99° |
| 2026-05-08 00:58 | 35.00402 | -106.48901 | 37056 ft | 473 kts | 99° |
| 2026-05-08 00:58 | 34.99412 | -106.40951 | 37027 ft | 474 kts | 99° |
| 2026-05-08 00:59 | 34.98417 | -106.32988 | 37000 ft | 475 kts | 99° |
| 2026-05-08 00:59 | 34.97423 | -106.25052 | 36983 ft | 476 kts | 99° |
| 2026-05-08 01:00 | 34.96416 | -106.17055 | 36973 ft | 477 kts | 99° |
| 2026-05-08 01:00 | 34.95402 | -106.09057 | 36995 ft | 478 kts | 99° |
| 2026-05-08 01:01 | 34.94377 | -106.01038 | 36985 ft | 478 kts | 99° |
| 2026-05-08 01:01 | 34.93347 | -105.93018 | 36980 ft | 479 kts | 100° |
| 2026-05-08 01:02 | 34.92317 | -105.85033 | 36990 ft | 480 kts | 100° |
| 2026-05-08 01:02 | 34.91273 | -105.76978 | 36986 ft | 481 kts | 100° |
| 2026-05-08 01:03 | 34.90222 | -105.68909 | 36983 ft | 482 kts | 100° |
| 2026-05-08 01:03 | 34.89165 | -105.60838 | 36965 ft | 482 kts | 101° |
| 2026-05-08 01:04 | 34.88109 | -105.52816 | 36987 ft | 483 kts | 101° |
| 2026-05-08 01:04 | 34.87039 | -105.44729 | 36954 ft | 483 kts | 101° |
| 2026-05-08 01:05 | 34.85961 | -105.36629 | 36962 ft | 484 kts | 101° |
| 2026-05-08 01:05 | 34.84883 | -105.28574 | 36933 ft | 484 kts | 101° |
| 2026-05-08 01:06 | 34.83792 | -105.20457 | 36925 ft | 485 kts | 101° |
| 2026-05-08 01:06 | 34.82700 | -105.12376 | 36939 ft | 487 kts | 101° |
| 2026-05-08 01:07 | 34.81594 | -105.04238 | 36913 ft | 488 kts | 101° |
| 2026-05-08 01:07 | 34.80691 | -104.97618 | 36921 ft | 489 kts | 102° |
| 2026-05-08 01:08 | 34.79578 | -104.89502 | 36925 ft | 490 kts | 102° |
| 2026-05-08 01:08 | 34.78447 | -104.81296 | 36964 ft | 492 kts | 102° |
| 2026-05-08 01:09 | 34.77305 | -104.73059 | 36971 ft | 494 kts | 102° |
| 2026-05-08 01:09 | 34.76153 | -104.64784 | 36965 ft | 497 kts | 102° |
| 2026-05-08 01:10 | 34.74993 | -104.56494 | 36960 ft | 498 kts | 103° |
| 2026-05-08 01:10 | 34.73832 | -104.48243 | 36936 ft | 498 kts | 103° |
| 2026-05-08 01:11 | 34.72659 | -104.39946 | 36921 ft | 498 kts | 103° |
| 2026-05-08 01:11 | 34.71480 | -104.31649 | 36889 ft | 497 kts | 103° |
| 2026-05-08 01:12 | 34.70299 | -104.23376 | 36890 ft | 496 kts | 103° |
| 2026-05-08 01:12 | 34.69113 | -104.15114 | 36873 ft | 496 kts | 103° |
| 2026-05-08 01:13 | 34.67921 | -104.06856 | 36867 ft | 495 kts | 104° |
| 2026-05-08 01:13 | 34.66731 | -103.98645 | 36877 ft | 496 kts | 104° |
| 2026-05-08 01:14 | 34.65525 | -103.90375 | 36898 ft | 497 kts | 104° |
| 2026-05-08 01:14 | 34.64310 | -103.82079 | 36882 ft | 499 kts | 105° |
| 2026-05-08 01:15 | 34.63084 | -103.73747 | 36905 ft | 502 kts | 105° |
| 2026-05-08 01:15 | 34.61854 | -103.65431 | 36903 ft | 504 kts | 105° |
| 2026-05-08 01:16 | 34.60604 | -103.57020 | 36910 ft | 507 kts | 105° |
| 2026-05-08 01:16 | 34.59346 | -103.48593 | 36918 ft | 508 kts | 105° |
| 2026-05-08 01:17 | 34.58079 | -103.40143 | 36931 ft | 509 kts | 105° |
| 2026-05-08 01:17 | 34.56801 | -103.31665 | 36962 ft | 511 kts | 105° |
| 2026-05-08 01:18 | 34.55515 | -103.23176 | 36959 ft | 511 kts | 105° |
| 2026-05-08 01:18 | 34.54233 | -103.14753 | 36981 ft | 511 kts | 105° |
| 2026-05-08 01:19 | 34.52938 | -103.06270 | 36974 ft | 510 kts | 107° |
| 2026-05-08 01:19 | 34.51633 | -102.97794 | 36992 ft | 510 kts | 107° |
| 2026-05-08 01:20 | 34.50327 | -102.89335 | 36991 ft | 510 kts | 107° |
| 2026-05-08 01:20 | 34.49092 | -102.80889 | 36985 ft | 513 kts | 104° |
| 2026-05-08 01:21 | 34.48190 | -102.72264 | 36972 ft | 516 kts | 103° |
| 2026-05-08 01:21 | 34.47371 | -102.63598 | 36981 ft | 517 kts | 103° |
| 2026-05-08 01:22 | 34.46510 | -102.54928 | 36977 ft | 518 kts | 103° |
| 2026-05-08 01:22 | 34.45615 | -102.46303 | 36963 ft | 520 kts | 103° |
| 2026-05-08 01:23 | 34.44695 | -102.37593 | 36963 ft | 521 kts | 103° |
| 2026-05-08 01:23 | 34.43770 | -102.28873 | 36953 ft | 522 kts | 103° |
| 2026-05-08 01:24 | 34.42838 | -102.20137 | 36962 ft | 523 kts | 104° |
| 2026-05-08 01:24 | 34.41906 | -102.11444 | 36952 ft | 523 kts | 104° |
| 2026-05-08 01:25 | 34.40962 | -102.02699 | 36938 ft | 523 kts | 104° |
| 2026-05-08 01:25 | 34.40012 | -101.93960 | 36936 ft | 523 kts | 104° |
| 2026-05-08 01:26 | 34.39054 | -101.85213 | 36971 ft | 523 kts | 104° |
| 2026-05-08 01:26 | 34.38089 | -101.76461 | 36991 ft | 524 kts | 104° |
| 2026-05-08 01:27 | 34.37123 | -101.67761 | 36994 ft | 525 kts | 104° |
| 2026-05-08 01:27 | 34.36143 | -101.58991 | 36988 ft | 526 kts | 104° |
| 2026-05-08 01:28 | 34.35155 | -101.50202 | 36983 ft | 526 kts | 105° |
| 2026-05-08 01:28 | 34.34164 | -101.41449 | 36970 ft | 527 kts | 105° |
| 2026-05-08 01:29 | 34.33162 | -101.32647 | 36954 ft | 528 kts | 105° |
| 2026-05-08 01:29 | 34.32152 | -101.23839 | 36945 ft | 529 kts | 105° |
| 2026-05-08 01:30 | 34.31135 | -101.15022 | 36962 ft | 529 kts | 105° |
| 2026-05-08 01:30 | 34.30111 | -101.06193 | 36959 ft | 530 kts | 105° |
| 2026-05-08 01:31 | 34.29084 | -100.97422 | 36965 ft | 530 kts | 105° |
| 2026-05-08 01:31 | 34.28042 | -100.88585 | 36957 ft | 531 kts | 105° |
| 2026-05-08 01:32 | 34.26994 | -100.79744 | 36956 ft | 531 kts | 105° |
| 2026-05-08 01:32 | 34.25940 | -100.70896 | 36933 ft | 530 kts | 105° |
| 2026-05-08 01:33 | 34.24889 | -100.62135 | 36960 ft | 530 kts | 106° |
| 2026-05-08 01:33 | 34.23823 | -100.53311 | 36971 ft | 530 kts | 106° |
| 2026-05-08 01:34 | 34.22750 | -100.44481 | 36964 ft | 531 kts | 106° |
| 2026-05-08 01:34 | 34.21670 | -100.35637 | 36965 ft | 532 kts | 106° |
| 2026-05-08 01:35 | 34.20590 | -100.26844 | 36981 ft | 533 kts | 107° |
| 2026-05-08 01:35 | 34.19791 | -100.22518 | 36969 ft | 521 kts | 117° |
| 2026-05-08 01:35 | 34.18592 | -100.18399 | 36957 ft | 516 kts | 121° |
| 2026-05-08 01:36 | 34.15986 | -100.10329 | 36965 ft | 516 kts | 121° |
| 2026-05-08 01:36 | 34.13411 | -100.02220 | 36970 ft | 519 kts | 120° |
| 2026-05-08 01:37 | 34.10904 | -99.94019 | 36969 ft | 521 kts | 120° |
| 2026-05-08 01:37 | 34.08431 | -99.85838 | 36965 ft | 522 kts | 120° |
| 2026-05-08 01:38 | 34.05933 | -99.77614 | 36967 ft | 521 kts | 120° |
| 2026-05-08 01:38 | 34.03420 | -99.69386 | 36974 ft | 522 kts | 120° |
| 2026-05-08 01:39 | 34.00898 | -99.61157 | 36983 ft | 523 kts | 120° |
| 2026-05-08 01:39 | 33.98390 | -99.52991 | 36978 ft | 523 kts | 120° |
| 2026-05-08 01:40 | 33.95852 | -99.44763 | 36970 ft | 523 kts | 120° |
| 2026-05-08 01:40 | 33.93297 | -99.36552 | 36978 ft | 523 kts | 120° |
| 2026-05-08 01:41 | 33.90756 | -99.28412 | 36997 ft | 523 kts | 120° |
| 2026-05-08 01:41 | 33.88192 | -99.20209 | 36988 ft | 523 kts | 120° |
| 2026-05-08 01:42 | 33.85620 | -99.11997 | 36997 ft | 523 kts | 121° |
| 2026-05-08 01:42 | 33.83050 | -99.03817 | 36989 ft | 522 kts | 121° |
| 2026-05-08 01:43 | 33.80474 | -98.95638 | 36997 ft | 522 kts | 121° |
| 2026-05-08 01:43 | 33.79181 | -98.91547 | 36641 ft | 527 kts | 121° |
| 2026-05-08 01:43 | 33.77895 | -98.87482 | 36111 ft | 526 kts | 121° |
| 2026-05-08 01:43 | 33.76599 | -98.83375 | 35502 ft | 524 kts | 121° |
| 2026-05-08 01:44 | 33.75297 | -98.79264 | 34856 ft | 525 kts | 121° |
| 2026-05-08 01:44 | 33.73998 | -98.75170 | 34169 ft | 525 kts | 121° |
| 2026-05-08 01:44 | 33.72695 | -98.71066 | 33434 ft | 526 kts | 121° |
| 2026-05-08 01:44 | 33.71390 | -98.66947 | 32660 ft | 527 kts | 121° |
| 2026-05-08 01:45 | 33.70081 | -98.62823 | 31921 ft | 528 kts | 120° |
| 2026-05-08 01:45 | 33.68787 | -98.58746 | 31152 ft | 530 kts | 120° |
| 2026-05-08 01:45 | 33.67469 | -98.54596 | 30335 ft | 531 kts | 119° |
| 2026-05-08 01:45 | 33.66146 | -98.50441 | 29401 ft | 536 kts | 118° |
| 2026-05-08 01:46 | 33.64800 | -98.46226 | 28435 ft | 541 kts | 117° |
| 2026-05-08 01:46 | 33.63451 | -98.42004 | 27550 ft | 540 kts | 116° |
| 2026-05-08 01:46 | 33.62118 | -98.37819 | 26928 ft | 533 kts | 116° |
| 2026-05-08 01:46 | 33.60802 | -98.33682 | 26269 ft | 528 kts | 116° |
| 2026-05-08 01:47 | 33.59510 | -98.29642 | 25622 ft | 522 kts | 115° |
| 2026-05-08 01:47 | 33.58213 | -98.25600 | 25185 ft | 512 kts | 115° |
| 2026-05-08 01:47 | 33.56966 | -98.21711 | 24978 ft | 487 kts | 115° |
| 2026-05-08 01:48 | 33.54565 | -98.14258 | 24107 ft | 475 kts | 114° |
| 2026-05-08 01:48 | 33.53385 | -98.10607 | 23563 ft | 472 kts | 114° |
| 2026-05-08 01:48 | 33.52202 | -98.06945 | 22960 ft | 469 kts | 114° |
| 2026-05-08 01:48 | 33.51029 | -98.03314 | 22399 ft | 465 kts | 114° |
| 2026-05-08 01:49 | 33.49869 | -97.99726 | 21859 ft | 460 kts | 114° |
| 2026-05-08 01:49 | 33.48721 | -97.96176 | 21332 ft | 455 kts | 114° |
| 2026-05-08 01:49 | 33.47580 | -97.92657 | 20817 ft | 450 kts | 115° |
| 2026-05-08 01:49 | 33.46454 | -97.89173 | 20313 ft | 446 kts | 115° |
| 2026-05-08 01:50 | 33.45342 | -97.85719 | 19805 ft | 442 kts | 115° |
| 2026-05-08 01:50 | 33.44241 | -97.82292 | 19303 ft | 438 kts | 115° |
| 2026-05-08 01:50 | 33.43163 | -97.78942 | 18779 ft | 434 kts | 115° |
| 2026-05-08 01:50 | 33.42079 | -97.75577 | 18269 ft | 431 kts | 115° |
| 2026-05-08 01:51 | 33.41001 | -97.72240 | 17687 ft | 427 kts | 115° |
| 2026-05-08 01:51 | 33.39934 | -97.68940 | 17163 ft | 423 kts | 115° |
| 2026-05-08 01:51 | 33.38875 | -97.65700 | 16936 ft | 410 kts | 117° |
| 2026-05-08 01:51 | 33.37424 | -97.62862 | 16571 ft | 392 kts | 138° |
| 2026-05-08 01:52 | 33.35490 | -97.60622 | 16159 ft | 384 kts | 142° |
| 2026-05-08 01:52 | 33.33557 | -97.58436 | 15715 ft | 382 kts | 141° |
| 2026-05-08 01:52 | 33.31648 | -97.56234 | 15258 ft | 379 kts | 141° |
| 2026-05-08 01:52 | 33.29768 | -97.54034 | 14917 ft | 374 kts | 140° |
| 2026-05-08 01:53 | 33.27961 | -97.51908 | 14753 ft | 364 kts | 140° |
| 2026-05-08 01:53 | 33.26159 | -97.49791 | 14328 ft | 363 kts | 140° |
| 2026-05-08 01:53 | 33.24357 | -97.47680 | 13935 ft | 361 kts | 140° |
| 2026-05-08 01:53 | 33.22566 | -97.45583 | 13491 ft | 360 kts | 139° |
| 2026-05-08 01:54 | 33.20778 | -97.43490 | 13072 ft | 358 kts | 139° |
| 2026-05-08 01:54 | 33.19005 | -97.41415 | 12673 ft | 355 kts | 139° |
| 2026-05-08 01:54 | 33.17278 | -97.39395 | 12456 ft | 347 kts | 139° |
| 2026-05-08 01:54 | 33.15579 | -97.37405 | 12300 ft | 337 kts | 140° |
| 2026-05-08 01:55 | 33.13927 | -97.35475 | 12151 ft | 327 kts | 140° |
| 2026-05-08 01:55 | 33.12326 | -97.33605 | 12051 ft | 317 kts | 140° |
| 2026-05-08 01:55 | 33.10779 | -97.31798 | 12037 ft | 307 kts | 140° |
| 2026-05-08 01:55 | 33.09262 | -97.30028 | 12037 ft | 304 kts | 140° |
| 2026-05-08 01:56 | 33.07739 | -97.28255 | 12049 ft | 308 kts | 140° |
| 2026-05-08 01:56 | 33.06718 | -97.27067 | 12052 ft | 311 kts | 140° |
| 2026-05-08 01:56 | 33.05174 | -97.25267 | 12043 ft | 311 kts | 140° |
| 2026-05-08 01:56 | 33.03639 | -97.23476 | 12029 ft | 306 kts | 140° |
| 2026-05-08 01:57 | 33.01647 | -97.21153 | 12017 ft | 298 kts | 140° |
| 2026-05-08 01:57 | 33.00181 | -97.19446 | 12010 ft | 292 kts | 141° |
| 2026-05-08 01:57 | 32.98558 | -97.18126 | 12013 ft | 277 kts | 166° |
| 2026-05-08 01:57 | 32.97301 | -97.17807 | 12032 ft | 271 kts | 185° |
| 2026-05-08 01:58 | 32.95495 | -97.18238 | 12033 ft | 263 kts | 212° |
| 2026-05-08 01:58 | 32.94150 | -97.19575 | 12024 ft | 253 kts | 238° |
| 2026-05-08 01:58 | 32.93541 | -97.21495 | 12027 ft | 248 kts | 264° |
| 2026-05-08 01:58 | 32.93491 | -97.23549 | 12024 ft | 248 kts | 270° |
| 2026-05-08 01:59 | 32.93539 | -97.25601 | 12002 ft | 247 kts | 274° |
| 2026-05-08 01:59 | 32.94060 | -97.27552 | 11794 ft | 252 kts | 300° |
| 2026-05-08 01:59 | 32.95355 | -97.28993 | 11471 ft | 264 kts | 327° |
| 2026-05-08 01:59 | 32.97156 | -97.29580 | 11178 ft | 274 kts | 349° |
| 2026-05-08 02:00 | 32.99064 | -97.29704 | 10959 ft | 276 kts | 352° |
| 2026-05-08 02:00 | 33.00990 | -97.29775 | 10727 ft | 277 kts | 353° |
| 2026-05-08 02:00 | 33.02894 | -97.29841 | 10514 ft | 278 kts | 353° |
| 2026-05-08 02:00 | 33.04826 | -97.29906 | 10285 ft | 276 kts | 353° |
| 2026-05-08 02:01 | 33.06730 | -97.29968 | 9957 ft | 272 kts | 353° |
| 2026-05-08 02:01 | 33.08634 | -97.30036 | 9446 ft | 274 kts | 353° |
| 2026-05-08 02:01 | 33.10533 | -97.30112 | 9012 ft | 272 kts | 353° |
| 2026-05-08 02:01 | 33.12417 | -97.30143 | 8607 ft | 271 kts | 2° |
| 2026-05-08 02:02 | 33.14210 | -97.29400 | 8161 ft | 278 kts | 32° |
| 2026-05-08 02:02 | 33.15569 | -97.27807 | 7795 ft | 277 kts | 50° |
| 2026-05-08 02:02 | 33.16721 | -97.25978 | 7406 ft | 275 kts | 52° |
| 2026-05-08 02:02 | 33.17843 | -97.24137 | 7025 ft | 273 kts | 53° |
| 2026-05-08 02:03 | 33.18882 | -97.22248 | 6635 ft | 272 kts | 65° |
| 2026-05-08 02:03 | 33.19473 | -97.20133 | 6263 ft | 265 kts | 73° |
| 2026-05-08 02:03 | 33.19837 | -97.18054 | 6085 ft | 248 kts | 89° |
| 2026-05-08 02:03 | 33.19831 | -97.16032 | 5854 ft | 241 kts | 92° |
| 2026-05-08 02:04 | 33.19725 | -97.14052 | 5592 ft | 234 kts | 102° |
| 2026-05-08 02:04 | 33.19402 | -97.12199 | 5432 ft | 224 kts | 102° |
| 2026-05-08 02:04 | 33.19055 | -97.10406 | 5167 ft | 220 kts | 111° |
| 2026-05-08 02:04 | 33.18102 | -97.09089 | 4985 ft | 206 kts | 154° |
| 2026-05-08 02:05 | 33.16794 | -97.08490 | 4997 ft | 200 kts | 163° |
| 2026-05-08 02:05 | 33.15452 | -97.08090 | 5000 ft | 202 kts | 169° |
| 2026-05-08 02:05 | 33.14053 | -97.07811 | 5004 ft | 205 kts | 167° |
| 2026-05-08 02:05 | 33.12804 | -97.07011 | 5004 ft | 205 kts | 143° |
| 2026-05-08 02:06 | 33.11544 | -97.06226 | 5003 ft | 206 kts | 164° |
| 2026-05-08 02:06 | 33.10126 | -97.05837 | 4640 ft | 222 kts | 170° |
| 2026-05-08 02:06 | 33.08585 | -97.05614 | 4243 ft | 223 kts | 175° |
| 2026-05-08 02:06 | 33.07045 | -97.05511 | 3815 ft | 218 kts | 177° |
| 2026-05-08 02:07 | 33.05568 | -97.05469 | 3382 ft | 206 kts | 178° |
| 2026-05-08 02:07 | 33.04178 | -97.05449 | 3019 ft | 192 kts | 178° |
| 2026-05-08 02:07 | 33.02888 | -97.05436 | 2778 ft | 180 kts | 179° |
| 2026-05-08 02:07 | 33.01679 | -97.05434 | 2583 ft | 166 kts | 179° |
| 2026-05-08 02:08 | 33.00562 | -97.05433 | 2364 ft | 156 kts | 179° |
| 2026-05-08 02:08 | 32.99502 | -97.05433 | 2187 ft | 147 kts | 179° |
| 2026-05-08 02:08 | 32.98465 | -97.05434 | 1995 ft | 152 kts | 179° |
| 2026-05-08 02:08 | 32.97425 | -97.05437 | 1795 ft | 147 kts | 179° |
| 2026-05-08 02:09 | 32.96433 | -97.05440 | 1606 ft | 143 kts | 179° |
| 2026-05-08 02:09 | 32.95435 | -97.05444 | 1418 ft | 143 kts | 179° |
| 2026-05-08 02:09 | 32.94443 | -97.05450 | 1200 ft | 142 kts | 180° |
| 2026-05-08 02:09 | 32.93442 | -97.05455 | 1004 ft | 144 kts | 179° |
| 2026-05-08 02:10 | 32.92444 | -97.05464 | 785 ft | 143 kts | 180° |
| 2026-05-08 02:10 | 32.91474 | -97.05465 | 628 ft | 139 kts | 180° |
| 2026-05-08 02:10 | 32.90576 | -97.05469 | 597 ft | 115 kts | 180° |
| 2026-05-08 02:10 | 32.89929 | -97.05473 | 597 ft | 53 kts | 180° |
| 2026-05-08 02:11 | 32.89647 | -97.05437 | 597 ft | 33 kts | 156° |
| 2026-05-08 02:11 | 32.89493 | -97.05341 | 597 ft | 7 kts | 152° |
| 2026-05-08 02:11 | 32.89472 | -97.05328 | 597 ft | 2 kts | 152° |
| 2026-05-08 02:11 | 32.89462 | -97.05321 | 597 ft | 2 kts | 152° |
| 2026-05-08 02:12 | 32.89449 | -97.05313 | 597 ft | 2 kts | 152° |
| 2026-05-08 02:12 | 32.89426 | -97.05298 | 597 ft | 7 kts | 152° |
| 2026-05-08 02:12 | 32.89396 | -97.05239 | 597 ft | 10 kts | 74° |
| 2026-05-08 02:12 | 32.89402 | -97.05156 | 597 ft | 10 kts | 91° |
| 2026-05-08 02:13 | 32.89402 | -97.05073 | 597 ft | 10 kts | 90° |
| 2026-05-08 02:13 | 32.89402 | -97.04993 | 597 ft | 10 kts | 91° |
| 2026-05-08 02:13 | 32.89401 | -97.04914 | 597 ft | 9 kts | 86° |
| 2026-05-08 02:13 | 32.89448 | -97.04884 | 597 ft | 9 kts | 349° |
| 2026-05-08 02:14 | 32.89508 | -97.04893 | 597 ft | 9 kts | 2° |
| 2026-05-08 02:14 | 32.89567 | -97.04888 | 597 ft | 8 kts | 4° |
| 2026-05-08 02:14 | 32.89614 | -97.04859 | 597 ft | 8 kts | 62° |
| 2026-05-08 02:14 | 32.89621 | -97.04794 | 597 ft | 8 kts | 88° |
| 2026-05-08 02:15 | 32.89663 | -97.04768 | 597 ft | 8 kts | 358° |
| 2026-05-08 02:15 | 32.89717 | -97.04763 | 597 ft | 7 kts | 22° |
| 2026-05-08 02:15 | 32.89720 | -97.04713 | 597 ft | 7 kts | 109° |
| 2026-05-08 02:15 | 32.89712 | -97.04658 | 597 ft | 7 kts | 89° |
| 2026-05-08 02:16 | 32.89711 | -97.04603 | 597 ft | 7 kts | 91° |
| 2026-05-08 02:16 | 32.89711 | -97.04576 | 597 ft | 0 kts | 89° |